Time;durP1;ratioP1;P1;durP2;ratioP2;P2;SDS_P1;SDS_P2;PMS_P1;PMS_P2;Temp;Humidity;BMP_temperature;BMP_pressure;BME280_temperature;BME280_humidity;BME280_pressure;Samples;Min_cycle;Max_cycle;Signal;HPM_P1;HPM_P2
2021/12/19 00:08:55;;;;;;;;;;;;;;;2.52;100.00;101137.03;5595213;31;33792;-82
2021/12/19 00:12:01;;;;;;;;;;;;;;;2.62;100.00;101127.84;5597888;31;33678;-83
2021/12/19 00:15:05;;;;;;;;;;;;;;;2.64;100.00;101131.25;5595920;31;33963;-83
2021/12/19 00:18:10;;;;;;;;;;;;;;;2.69;100.00;101138.87;5594758;31;34094;-82
2021/12/19 00:21:17;;;;;;;;;;;;;;;2.69;100.00;101129.25;5595541;31;33833;-83
2021/12/19 00:24:20;;;;;;;;;;;;;;;2.67;100.00;101125.88;5595798;31;34014;-83
2021/12/19 00:27:25;;;;;;;;;;;;;;;2.80;100.00;101134.00;5596086;31;33681;-83
2021/12/19 00:30:28;;;;;;;;;;;;;;;2.80;100.00;101114.84;5596324;31;34065;-83
2021/12/19 00:33:30;;;;;;;;;;;;;;;2.87;100.00;101116.28;5597013;31;33651;-82
2021/12/19 00:36:33;;;;;;;;;;;;;;;2.84;100.00;101109.41;5598805;31;34182;-82
2021/12/19 00:39:36;;;;;;;;;;;;;;;2.82;100.00;101118.25;5598697;31;34699;-82
2021/12/19 00:42:39;;;;;;;;;;;;;;;2.72;100.00;101097.78;5596256;31;33736;-83
2021/12/19 00:45:41;;;;;;;;;;;;;;;2.80;100.00;101096.56;5595321;31;33070;-83
2021/12/19 00:48:46;;;;;;;;;;;;;;;2.96;100.00;101104.53;5597002;31;33714;-83
2021/12/19 00:51:49;;;;;;;;;;;;;;;2.88;100.00;101102.28;5600762;31;34182;-82
2021/12/19 00:54:51;;;;;;;;;;;;;;;2.87;100.00;101116.28;5599916;31;32354;-82
2021/12/19 00:57:55;;;;;;;;;;;;;;;2.87;100.00;101108.44;5597966;31;33345;-82
2021/12/19 01:00:57;;;;;;;;;;;;;;;2.71;100.00;101116.97;5598396;31;36199;-83
2021/12/19 01:04:13;;;;;;;;;;;;;;;2.60;100.00;101114.00;5598163;31;34622;-83
2021/12/19 01:07:21;;;;;;;;;;;;;;;2.65;100.00;101116.41;5598221;31;33431;-82
2021/12/19 01:10:23;;;;;;;;;;;;;;;2.68;100.00;101098.00;5597882;31;34312;-82
2021/12/19 01:13:26;;;;;;;;;;;;;;;2.62;100.00;101093.88;5597745;31;33371;-82
2021/12/19 01:16:31;;;;;;;;;;;;;;;2.51;100.00;101096.97;5597514;31;33804;-83
2021/12/19 01:19:36;;;;;;;;;;;;;;;2.57;100.00;101088.03;5596912;31;34380;-82
2021/12/19 01:22:39;;;;;;;;;;;;;;;2.57;100.00;101088.03;5596804;31;33873;-82
2021/12/19 01:25:42;;;;;;;;;;;;;;;2.63;100.00;101079.91;5597408;31;33961;-82
2021/12/19 01:28:45;;;;;;;;;;;;;;;2.62;100.00;101086.06;5597478;31;33821;-83
2021/12/19 01:31:48;;;;;;;;;;;;;;;2.69;100.00;101074.37;5597152;31;33891;-82
2021/12/19 01:34:52;;;;;;;;;;;;;;;2.71;100.00;101069.94;5597655;31;33845;-83
2021/12/19 01:37:57;;;;;;;;;;;;;;;2.77;100.00;101074.88;5597051;31;33556;-83
2021/12/19 01:41:00;;;;;;;;;;;;;;;2.91;100.00;101066.41;5596972;31;33204;-83
2021/12/19 01:44:04;;;;;;;;;;;;;;;2.82;100.00;101076.44;5596941;31;33718;-83
2021/12/19 01:47:10;;;;;;;;;;;;;;;2.89;100.00;101059.53;5596501;31;33842;-84
2021/12/19 01:50:14;;;;;;;;;;;;;;;2.90;100.00;101053.38;5597262;31;33823;-83
2021/12/19 01:53:16;;;;;;;;;;;;;;;2.90;100.00;101042.94;5597126;31;33620;-83
2021/12/19 01:56:21;;;;;;;;;;;;;;;2.88;100.00;101036.94;5597160;31;34279;-82
2021/12/19 01:59:24;;;;;;;;;;;;;;;2.93;100.00;101011.44;5596531;31;33965;-83
2021/12/19 02:02:26;;;;;;;;;;;;;;;2.97;100.00;101018.22;5595960;31;33560;-83
2021/12/19 02:05:32;;;;;;;;;;;;;;;3.15;100.00;101026.94;5596530;31;33148;-83
2021/12/19 02:08:34;;;;;;;;;;;;;;;3.18;100.00;101005.00;5596846;31;34164;-83
2021/12/19 02:11:38;;;;;;;;;;;;;;;3.34;100.00;101007.69;5597139;31;33789;-83
2021/12/19 02:14:40;;;;;;;;;;;;;;;3.21;100.00;100995.22;5596694;31;33807;-83
2021/12/19 02:17:44;;;;;;;;;;;;;;;3.27;100.00;100990.59;5597455;31;33505;-83
2021/12/19 02:20:52;;;;;;;;;;;;;;;3.32;100.00;100986.00;5597488;31;34413;-82
2021/12/19 02:24:03;;;;;;;;;;;;;;;3.39;100.00;100983.00;5597069;31;33782;-83
2021/12/19 02:27:05;;;;;;;;;;;;;;;3.39;100.00;100982.13;5597071;31;33091;-83
2021/12/19 02:30:09;;;;;;;;;;;;;;;3.32;100.00;100981.59;5596316;31;33465;-83
2021/12/19 02:33:18;;;;;;;;;;;;;;;3.47;100.00;100964.31;5598496;31;33909;-82
2021/12/19 02:36:38;;;;;;;;;;;;;;;3.39;100.00;100959.47;5597211;31;33567;-83
2021/12/19 02:49:40;;;;;;;;;;;;;;;3.43;100.00;100930.53;5596867;31;33715;-83
2021/12/19 02:52:43;;;;;;;;;;;;;;;3.55;100.00;100924.63;5597742;31;34175;-85
2021/12/19 02:55:45;;;;;;;;;;;;;;;3.53;100.00;100926.50;5596261;31;33517;-83
2021/12/19 02:58:48;;;;;;;;;;;;;;;3.46;100.00;100925.97;5596360;31;34126;-83
2021/12/19 03:01:53;;;;;;;;;;;;;;;3.38;100.00;100931.59;5596819;31;33685;-83
2021/12/19 03:05:00;;;;;;;;;;;;;;;3.38;100.00;100929.00;5598253;31;33829;-83
2021/12/19 03:08:03;;;;;;;;;;;;;;;3.45;100.00;100924.28;5596336;31;34185;-83
2021/12/19 03:17:59;;;;;;;;;;;;;;;3.48;100.00;100886.66;5597305;31;34428;-85
2021/12/19 03:21:02;;;;;;;;;;;;;;;3.37;100.00;100895.91;5595949;31;33369;-83
2021/12/19 03:24:05;;;;;;;;;;;;;;;3.47;100.00;100885.81;5596470;31;34268;-82
2021/12/19 03:27:07;;;;;;;;;;;;;;;3.34;100.00;100875.13;5597096;31;33307;-83
2021/12/19 03:30:10;;;;;;;;;;;;;;;3.31;100.00;100884.91;5596890;31;33872;-83
2021/12/19 03:33:13;;;;;;;;;;;;;;;3.32;100.00;100871.75;5597375;31;33522;-83
2021/12/19 03:36:18;;;;;;;;;;;;;;;3.29;100.00;100885.00;5596386;31;33871;-83
2021/12/19 03:39:33;;;;;;;;;;;;;;;3.35;100.00;100866.38;5597583;31;33680;-83
2021/12/19 03:42:41;;;;;;;;;;;;;;;3.32;100.00;100858.66;5596120;31;34241;-83
2021/12/19 03:45:47;;;;;;;;;;;;;;;3.39;100.00;100872.28;5595543;31;33309;-83
2021/12/19 03:48:52;;;;;;;;;;;;;;;3.33;100.00;100876.06;5596156;31;34272;-84
2021/12/19 03:51:55;;;;;;;;;;;;;;;3.30;100.00;100870.16;5595799;31;33723;-83
2021/12/19 03:54:58;;;;;;;;;;;;;;;3.35;100.00;100876.00;5595588;31;33528;-83
2021/12/19 03:58:05;;;;;;;;;;;;;;;3.28;100.00;100870.25;5595876;31;33115;-82
2021/12/19 04:01:09;;;;;;;;;;;;;;;3.34;100.00;100871.69;5596154;31;33977;-83
2021/12/19 04:04:17;;;;;;;;;;;;;;;3.38;100.00;100854.88;5596059;31;33205;-83
2021/12/19 04:07:20;;;;;;;;;;;;;;;3.42;100.00;100872.13;5596176;31;33454;-83
2021/12/19 04:10:24;;;;;;;;;;;;;;;3.31;100.00;100880.53;5596006;31;34329;-82
2021/12/19 04:13:26;;;;;;;;;;;;;;;3.40;100.00;100877.44;5596391;31;33635;-83
2021/12/19 04:16:29;;;;;;;;;;;;;;;3.44;100.00;100870.28;5595654;31;33744;-83
2021/12/19 04:19:33;;;;;;;;;;;;;;;3.42;100.00;100869.50;5595874;31;33738;-83
2021/12/19 04:22:38;;;;;;;;;;;;;;;3.25;100.00;100873.00;5595467;31;34048;-83
2021/12/19 04:25:40;;;;;;;;;;;;;;;3.27;100.00;100872.91;5597804;31;34116;-83
2021/12/19 04:28:43;;;;;;;;;;;;;;;3.26;100.00;100885.16;5598189;31;33640;-82
2021/12/19 04:31:48;;;;;;;;;;;;;;;3.30;100.00;100873.63;5597643;31;33711;-83
2021/12/19 04:34:50;;;;;;;;;;;;;;;3.23;100.00;100867.00;5597733;31;33625;-83
2021/12/19 04:38:36;;;;;;;;;;;;;;;3.35;100.00;100866.38;5597268;31;34223;-83
2021/12/19 04:58:18;;;;;;;;;;;;;;;3.34;100.00;100838.50;5596928;31;34177;-83
2021/12/19 05:14:38;;;;;;;;;;;;;;;2.96;100.00;100781.25;5598530;31;33779;-83
2021/12/19 05:17:40;;;;;;;;;;;;;;;2.89;100.00;100779.87;5597612;31;34212;-84
2021/12/19 05:20:53;;;;;;;;;;;;;;;2.91;100.00;100783.25;5597776;31;33629;-83
2021/12/19 05:27:03;;;;;;;;;;;;;;;2.91;100.00;100778.91;5597236;31;33665;-83
2021/12/19 05:30:06;;;;;;;;;;;;;;;2.98;100.00;100779.41;5596959;31;34014;-83
2021/12/19 05:33:09;;;;;;;;;;;;;;;2.99;100.00;100775.03;5597466;31;33338;-83
2021/12/19 05:46:18;;;;;;;;;;;;;;;2.94;100.00;100751.75;5596658;31;33839;-83
2021/12/19 05:49:23;;;;;;;;;;;;;;;2.79;100.00;100748.16;5599797;31;33186;-83
2021/12/19 05:52:26;;;;;;;;;;;;;;;2.87;100.00;100732.09;5600615;31;33874;-83
2021/12/19 05:55:29;;;;;;;;;;;;;;;2.83;100.00;100741.00;5598155;31;33509;-83
2021/12/19 05:58:31;;;;;;;;;;;;;;;2.87;100.00;100730.31;5599480;31;33792;-83
2021/12/19 06:01:38;;;;;;;;;;;;;;;3.05;100.00;100738.09;5596981;31;34483;-83
2021/12/19 06:04:44;;;;;;;;;;;;;;;2.97;100.00;100728.06;5597032;31;33334;-83
2021/12/19 06:07:46;;;;;;;;;;;;;;;3.13;100.00;100729.84;5596779;31;33695;-83
2021/12/19 06:10:49;;;;;;;;;;;;;;;3.17;100.00;100739.22;5597027;31;33233;-83
2021/12/19 06:13:51;;;;;;;;;;;;;;;3.16;100.00;100729.69;5596476;31;33694;-83
2021/12/19 06:16:54;;;;;;;;;;;;;;;3.03;100.00;100706.81;5597653;31;34372;-83
2021/12/19 06:19:56;;;;;;;;;;;;;;;3.06;100.00;100721.47;5597161;31;33806;-82
2021/12/19 06:22:59;;;;;;;;;;;;;;;3.02;100.00;100707.72;5597242;31;34170;-83
2021/12/19 06:26:02;;;;;;;;;;;;;;;3.09;100.00;100711.72;5597553;31;34308;-82
2021/12/19 06:29:06;;;;;;;;;;;;;;;3.10;100.00;100712.56;5597318;31;33073;-82
2021/12/19 06:32:09;;;;;;;;;;;;;;;3.09;100.00;100716.94;5596578;31;34156;-82
2021/12/19 06:35:21;;;;;;;;;;;;;;;3.26;100.00;100714.34;5596325;31;33822;-83
2021/12/19 06:38:24;;;;;;;;;;;;;;;3.27;100.00;100716.88;5598381;31;34793;-83
2021/12/19 06:41:27;;;;;;;;;;;;;;;3.18;100.00;100709.53;5597947;31;33861;-82
2021/12/19 06:44:30;;;;;;;;;;;;;;;3.18;100.00;100694.66;5596665;31;34026;-83
2021/12/19 06:47:32;;;;;;;;;;;;;;;3.35;100.00;100687.69;5601453;31;34429;-82
2021/12/19 06:50:35;;;;;;;;;;;;;;;3.31;100.00;100681.78;5604895;31;33573;-82
2021/12/19 06:53:38;;;;;;;;;;;;;;;3.41;100.00;100682.09;5604602;31;33653;-83
2021/12/19 06:56:40;;;;;;;;;;;;;;;3.45;100.00;100680.16;5606549;31;34599;-83
2021/12/19 06:59:47;;;;;;;;;;;;;;;3.39;100.00;100679.56;5605392;31;34685;-82
2021/12/19 07:02:52;;;;;;;;;;;;;;;3.50;100.00;100675.50;5605659;31;33886;-82
2021/12/19 07:05:55;;;;;;;;;;;;;;;3.36;100.00;100666.66;5604730;31;33529;-84
2021/12/19 07:08:57;;;;;;;;;;;;;;;3.49;100.00;100663.38;5600811;31;34729;-85
2021/12/19 07:12:00;;;;;;;;;;;;;;;3.49;100.00;100661.56;5602309;31;33172;-85
2021/12/19 07:15:03;;;;;;;;;;;;;;;3.53;100.00;100664.88;5604511;31;34284;-85
2021/12/19 07:18:06;;;;;;;;;;;;;;;3.51;100.00;100656.28;5597895;31;33951;-85
2021/12/19 07:21:13;;;;;;;;;;;;;;;3.55;100.00;100661.25;5598790;31;34200;-83
2021/12/19 07:24:16;;;;;;;;;;;;;;;3.60;100.00;100660.97;5598186;31;34493;-84
2021/12/19 07:27:21;;;;;;;;;;;;;;;3.52;100.00;100665.81;5596683;31;31973;-85
2021/12/19 07:30:25;;;;;;;;;;;;;;;3.61;100.00;100662.66;5602764;31;33710;-83
2021/12/19 07:33:28;;;;;;;;;;;;;;;3.51;100.00;100667.56;5598550;31;34437;-82
2021/12/19 07:36:39;;;;;;;;;;;;;;;3.65;100.00;100669.44;5598569;31;33767;-84
2021/12/19 07:39:53;;;;;;;;;;;;;;;3.74;100.00;100682.91;5596002;31;33621;-84
2021/12/19 07:42:58;;;;;;;;;;;;;;;3.60;100.00;100681.09;5595537;31;33601;-81
2021/12/19 07:46:01;;;;;;;;;;;;;;;3.77;100.00;100678.34;5596300;31;34076;-82
2021/12/19 07:49:04;;;;;;;;;;;;;;;3.71;100.00;100674.28;5596556;31;33997;-83
2021/12/19 07:52:07;;;;;;;;;;;;;;;3.73;100.00;100657.66;5596673;31;33607;-82
2021/12/19 07:55:09;;;;;;;;;;;;;;;3.78;100.00;100655.59;5596146;31;33796;-82
2021/12/19 07:58:12;;;;;;;;;;;;;;;3.89;100.00;100650.59;5595301;31;33881;-82
2021/12/19 08:01:14;;;;;;;;;;;;;;;3.97;100.00;100653.63;5597156;31;32881;-85
2021/12/19 08:04:17;;;;;;;;;;;;;;;3.83;100.00;100630.84;5596677;31;34778;-84
2021/12/19 08:07:23;;;;;;;;;;;;;;;3.82;100.00;100628.34;5597071;31;34634;-85
2021/12/19 08:13:31;;;;;;;;;;;;;;;3.97;100.00;100632.69;5597397;31;33110;-85
2021/12/19 08:16:35;;;;;;;;;;;;;;;3.84;100.00;100642.19;5597367;31;33206;-82
2021/12/19 08:19:38;;;;;;;;;;;;;;;4.04;100.00;100637.53;5597495;31;34149;-83
2021/12/19 08:22:41;;;;;;;;;;;;;;;4.12;100.00;100636.16;5601669;31;33593;-82
2021/12/19 08:25:43;;;;;;;;;;;;;;;4.08;100.00;100628.59;5596577;31;33787;-82
2021/12/19 08:28:56;;;;;;;;;;;;;;;4.20;100.00;100627.00;5595405;31;33544;-82
2021/12/19 08:32:01;;;;;;;;;;;;;;;4.25;100.00;100610.06;5595916;31;34189;-82
2021/12/19 08:35:04;;;;;;;;;;;;;;;4.37;100.00;100605.03;5596410;31;34555;-82
2021/12/19 08:38:07;;;;;;;;;;;;;;;4.28;100.00;100596.78;5596761;31;32108;-82
2021/12/19 08:41:09;;;;;;;;;;;;;;;4.40;100.00;100597.00;5599367;31;33529;-82
2021/12/19 08:44:12;;;;;;;;;;;;;;;4.38;100.00;100604.94;5596150;31;33183;-82
2021/12/19 08:47:17;;;;;;;;;;;;;;;4.22;100.00;100594.56;5596560;31;33898;-86
2021/12/19 08:50:21;;;;;;;;;;;;;;;4.17;100.00;100596.59;5597364;31;34336;-86
2021/12/19 08:53:24;;;;;;;;;;;;;;;4.41;100.00;100591.62;5596662;31;33561;-84
2021/12/19 08:56:28;;;;;;;;;;;;;;;4.42;99.92;100593.31;5595012;31;34507;-83
2021/12/19 08:59:42;;;;;;;;;;;;;;;4.36;100.00;100587.62;5596141;31;34657;-83
2021/12/19 09:02:46;;;;;;;;;;;;;;;4.35;100.00;100593.78;5597451;31;33356;-84
2021/12/19 09:05:49;;;;;;;;;;;;;;;4.46;100.00;100588.72;5596371;31;34655;-83
2021/12/19 09:08:52;;;;;;;;;;;;;;;4.69;98.85;100589.09;5595982;31;34175;-84
2021/12/19 09:11:55;;;;;;;;;;;;;;;4.57;99.34;100604.62;5597315;31;33439;-82
2021/12/19 09:14:58;;;;;;;;;;;;;;;4.62;99.21;100586.84;5598821;31;33746;-83
2021/12/19 09:18:01;;;;;;;;;;;;;;;4.52;99.58;100559.56;5597354;31;34625;-83
2021/12/19 09:21:04;;;;;;;;;;;;;;;4.37;100.00;100570.97;5597557;31;34191;-83
2021/12/19 09:24:10;;;;;;;;;;;;;;;4.24;100.00;100549.94;5598005;31;33517;-83
2021/12/19 09:27:12;;;;;;;;;;;;;;;4.11;100.00;100536.75;5597948;31;33575;-86
2021/12/19 09:30:18;;;;;;;;;;;;;;;4.09;100.00;100531.59;5599119;31;34326;-83
2021/12/19 09:33:20;;;;;;;;;;;;;;;3.92;100.00;100529.19;5599163;31;33736;-83
2021/12/19 09:36:23;;;;;;;;;;;;;;;3.96;100.00;100531.53;5598073;31;33986;-83
2021/12/19 09:39:26;;;;;;;;;;;;;;;4.16;100.00;100532.06;5598288;31;33625;-83
2021/12/19 09:42:46;;;;;;;;;;;;;;;4.21;100.00;100506.44;5598411;31;33608;-83
2021/12/19 09:45:52;;;;;;;;;;;;;;;4.46;100.00;100510.12;5597720;31;33115;-82
2021/12/19 09:48:55;;;;;;;;;;;;;;;4.48;99.90;100510.88;5598522;31;34046;-83
2021/12/19 09:51:57;;;;;;;;;;;;;;;4.44;100.00;100498.94;5597226;31;33193;-83
2021/12/19 09:55:01;;;;;;;;;;;;;;;4.62;98.90;100486.41;5597824;31;33716;-84
2021/12/19 09:58:06;;;;;;;;;;;;;;;4.78;98.61;100496.78;5597928;31;33226;-83
2021/12/19 10:01:13;;;;;;;;;;;;;;;5.04;96.24;100481.97;5597613;31;33933;-83
2021/12/19 10:04:34;;;;;;;;;;;;;;;5.04;95.42;100460.13;5598554;31;33348;-83
2021/12/19 10:07:44;;;;;;;;;;;;;;;4.85;97.08;100481.47;5596604;31;34372;-83
2021/12/19 10:10:57;;;;;;;;;;;;;;;5.12;95.38;100468.34;5597103;31;33203;-83
2021/12/19 10:14:00;;;;;;;;;;;;;;;5.10;95.52;100470.25;5597124;31;34301;-83
2021/12/19 10:17:05;;;;;;;;;;;;;;;5.12;95.50;100457.00;5596510;31;33697;-84
2021/12/19 10:20:09;;;;;;;;;;;;;;;5.11;94.98;100453.56;5596741;31;33189;-83
2021/12/19 10:23:23;;;;;;;;;;;;;;;5.05;96.11;100456.56;5595993;31;34231;-83
2021/12/19 10:26:38;;;;;;;;;;;;;;;5.03;95.70;100447.97;5596873;31;33802;-83
2021/12/19 10:29:42;;;;;;;;;;;;;;;5.22;94.52;100448.44;5596503;31;33010;-82
2021/12/19 10:33:02;;;;;;;;;;;;;;;5.30;93.46;100447.06;5596492;31;33752;-83
2021/12/19 10:36:06;;;;;;;;;;;;;;;5.08;94.80;100445.88;5596360;31;33921;-83
2021/12/19 10:39:12;;;;;;;;;;;;;;;5.17;93.98;100419.03;5598976;31;34382;-86
2021/12/19 10:42:15;;;;;;;;;;;;;;;5.03;94.07;100443.56;5597291;31;33601;-84
2021/12/19 10:48:46;;;;;;;;;;;;;;;5.01;95.07;100423.66;5595871;31;33273;-83
2021/12/19 10:51:49;;;;;;;;;;;;;;;4.90;94.98;100438.28;5599421;31;33726;-86
2021/12/19 10:54:56;;;;;;;;;;;;;;;4.81;95.44;100427.59;5597384;31;33917;-83
2021/12/19 10:57:58;;;;;;;;;;;;;;;4.75;95.81;100418.34;5597012;31;34677;-83
2021/12/19 11:01:14;;;;;;;;;;;;;;;4.65;96.68;100431.19;5597718;31;33973;-85
2021/12/19 11:04:22;;;;;;;;;;;;;;;4.94;93.86;100426.66;5597296;31;33918;-87
2021/12/19 11:07:25;;;;;;;;;;;;;;;4.99;93.87;100426.34;5596505;31;33852;-83
2021/12/19 11:10:30;;;;;;;;;;;;;;;4.99;93.70;100415.88;5597681;31;34575;-83
2021/12/19 11:13:36;;;;;;;;;;;;;;;4.82;94.07;100417.00;5596519;31;33301;-85
2021/12/19 11:16:39;;;;;;;;;;;;;;;5.00;93.49;100448.19;5598363;31;33822;-83
2021/12/19 11:19:50;;;;;;;;;;;;;;;4.82;94.74;100409.13;5599049;31;33541;-83
2021/12/19 11:22:54;;;;;;;;;;;;;;;4.92;93.63;100410.19;5597097;31;33861;-82
2021/12/19 11:25:57;;;;;;;;;;;;;;;4.74;94.20;100404.38;5601362;31;33606;-83
2021/12/19 11:29:03;;;;;;;;;;;;;;;4.87;93.23;100388.69;5598223;31;34212;-83
2021/12/19 11:32:08;;;;;;;;;;;;;;;4.72;93.82;100394.94;5597478;31;33661;-83
2021/12/19 11:35:12;;;;;;;;;;;;;;;4.84;93.83;100411.66;5596856;31;34279;-83
2021/12/19 11:38:20;;;;;;;;;;;;;;;4.85;93.25;100414.16;5597423;31;33626;-83
2021/12/19 11:41:24;;;;;;;;;;;;;;;4.77;94.37;100406.81;5596846;31;34436;-84
2021/12/19 11:44:30;;;;;;;;;;;;;;;4.70;94.21;100402.91;5596575;31;33927;-82
2021/12/19 11:47:35;;;;;;;;;;;;;;;4.76;93.79;100399.87;5597378;31;33741;-82
2021/12/19 11:50:53;;;;;;;;;;;;;;;4.49;95.10;100392.06;5596643;31;33735;-86
2021/12/19 11:54:10;;;;;;;;;;;;;;;4.55;94.97;100404.78;5596361;31;34405;-83
2021/12/19 11:57:33;;;;;;;;;;;;;;;4.51;95.77;100390.19;5597052;31;34160;-85
2021/12/19 12:00:50;;;;;;;;;;;;;;;4.47;95.49;100396.53;5596020;31;33874;-84
2021/12/19 12:03:56;;;;;;;;;;;;;;;4.51;95.36;100389.31;5596132;31;33906;-82
2021/12/19 12:07:02;;;;;;;;;;;;;;;4.64;94.08;100384.97;5595279;31;32792;-82
2021/12/19 12:10:08;;;;;;;;;;;;;;;4.46;94.83;100387.00;5596218;31;33947;-82
2021/12/19 12:13:23;;;;;;;;;;;;;;;4.42;95.54;100385.53;5596403;31;34569;-82
2021/12/19 12:16:33;;;;;;;;;;;;;;;4.27;95.61;100390.81;5596416;31;33738;-82
2021/12/19 12:19:46;;;;;;;;;;;;;;;4.38;95.80;100373.56;5595506;31;33604;-81
2021/12/19 12:22:59;;;;;;;;;;;;;;;4.28;96.20;100384.66;5595827;31;33946;-82
2021/12/19 12:26:28;;;;;;;;;;;;;;;4.25;95.91;100374.34;5595937;31;33626;-83
2021/12/19 12:29:31;;;;;;;;;;;;;;;4.26;96.09;100381.28;5596510;31;33680;-82
2021/12/19 12:32:34;;;;;;;;;;;;;;;4.23;96.15;100380.63;5596353;31;33694;-85
2021/12/19 12:35:41;;;;;;;;;;;;;;;4.24;96.02;100361.38;5597626;31;33534;-82
2021/12/19 12:38:47;;;;;;;;;;;;;;;4.34;95.90;100357.22;5595746;31;33098;-82
2021/12/19 12:42:00;;;;;;;;;;;;;;;4.30;96.16;100355.72;5596383;31;33441;-82
2021/12/19 12:45:03;;;;;;;;;;;;;;;4.17;96.83;100345.22;5597139;31;33899;-82
2021/12/19 12:48:06;;;;;;;;;;;;;;;4.30;95.92;100355.72;5598718;31;34130;-82
2021/12/19 12:51:13;;;;;;;;;;;;;;;4.39;95.74;100354.28;5597359;31;33493;-84
2021/12/19 12:54:30;;;;;;;;;;;;;;;4.16;96.39;100361.84;5598077;31;33331;-84
2021/12/19 12:57:35;;;;;;;;;;;;;;;4.07;97.06;100365.06;5599423;31;33438;-82
2021/12/19 13:00:40;;;;;;;;;;;;;;;4.27;96.14;100356.78;5597930;31;33657;-84
2021/12/19 13:04:01;;;;;;;;;;;;;;;4.06;97.22;100337.22;5598551;31;33946;-84
2021/12/19 13:07:05;;;;;;;;;;;;;;;4.11;97.40;100317.66;5597843;31;33678;-84
2021/12/19 13:10:12;;;;;;;;;;;;;;;4.28;96.56;100311.31;5597379;31;33269;-84
2021/12/19 13:13:17;;;;;;;;;;;;;;;4.28;96.80;100315.69;5597068;31;34279;-85
2021/12/19 13:16:26;;;;;;;;;;;;;;;4.50;95.60;100324.78;5596936;31;34415;-81
2021/12/19 13:19:47;;;;;;;;;;;;;;;4.32;96.03;100323.28;5597179;31;33605;-82
2021/12/19 13:22:49;;;;;;;;;;;;;;;4.35;96.10;100310.91;5598106;31;33262;-84
2021/12/19 13:25:52;;;;;;;;;;;;;;;4.36;96.61;100300.34;5597122;31;33667;-84
2021/12/19 13:29:15;;;;;;;;;;;;;;;4.33;96.53;100306.59;5597378;31;33921;-84
2021/12/19 13:32:31;;;;;;;;;;;;;;;4.32;96.84;100310.19;5596962;31;33376;-81
2021/12/19 13:35:39;;;;;;;;;;;;;;;4.31;96.75;100315.50;5597663;31;33588;-84
2021/12/19 13:38:43;;;;;;;;;;;;;;;4.25;97.20;100306.25;5597291;31;33499;-84
2021/12/19 13:41:45;;;;;;;;;;;;;;;4.45;95.96;100307.59;5597155;31;33793;-84
2021/12/19 13:44:49;;;;;;;;;;;;;;;4.29;97.05;100312.13;5597205;31;33454;-84
2021/12/19 13:47:52;;;;;;;;;;;;;;;4.34;97.05;100320.53;5600345;31;33386;-85
2021/12/19 13:51:01;;;;;;;;;;;;;;;4.38;96.57;100294.97;5599292;31;34144;-85
2021/12/19 13:54:10;;;;;;;;;;;;;;;4.31;96.85;100284.94;5598177;31;33627;-84
2021/12/19 13:57:21;;;;;;;;;;;;;;;4.29;97.50;100281.56;5596644;31;34082;-84
2021/12/19 14:00:30;;;;;;;;;;;;;;;4.36;97.11;100278.53;5597450;31;34310;-84
2021/12/19 14:03:41;;;;;;;;;;;;;;;4.43;96.27;100266.72;5596620;31;34190;-84
2021/12/19 14:06:45;;;;;;;;;;;;;;;4.37;96.46;100265.34;5599178;31;34757;-84
2021/12/19 14:09:48;;;;;;;;;;;;;;;4.28;97.25;100258.94;5599659;31;34207;-84
2021/12/19 14:13:06;;;;;;;;;;;;;;;4.28;96.90;100256.31;5599169;31;34148;-84
2021/12/19 14:16:14;;;;;;;;;;;;;;;4.32;96.68;100255.19;5596801;31;34272;-84
2021/12/19 14:19:26;;;;;;;;;;;;;;;4.37;96.13;100259.25;5596888;31;34420;-81
2021/12/19 14:22:29;;;;;;;;;;;;;;;4.45;95.43;100255.19;5597259;31;33653;-82
2021/12/19 14:25:32;;;;;;;;;;;;;;;4.36;96.05;100260.19;5597550;31;33517;-82
2021/12/19 14:28:36;;;;;;;;;;;;;;;4.37;96.53;100251.41;5597555;31;33827;-83
2021/12/19 14:32:00;;;;;;;;;;;;;;;4.36;95.74;100247.09;5597685;31;34174;-81
2021/12/19 14:35:12;;;;;;;;;;;;;;;4.35;95.92;100243.66;5596078;31;33609;-82
2021/12/19 14:38:15;;;;;;;;;;;;;;;4.33;96.16;100243.72;5597432;31;33896;-84
2021/12/19 14:41:18;;;;;;;;;;;;;;;4.35;96.09;100248.03;5596727;31;33098;-84
2021/12/19 14:44:23;;;;;;;;;;;;;;;4.29;96.40;100241.41;5596990;31;34728;-83
2021/12/19 14:47:33;;;;;;;;;;;;;;;4.31;96.30;100245.62;5597322;31;33811;-82
2021/12/19 14:50:45;;;;;;;;;;;;;;;4.36;95.96;100245.34;5596608;31;33862;-82
2021/12/19 14:53:47;;;;;;;;;;;;;;;4.37;95.90;100251.41;5597678;31;33325;-85
2021/12/19 14:56:50;;;;;;;;;;;;;;;4.28;96.40;100242.34;5596597;31;33820;-82
2021/12/19 14:59:53;;;;;;;;;;;;;;;4.29;96.57;100250.13;5596274;31;34412;-82
2021/12/19 15:02:55;;;;;;;;;;;;;;;4.28;96.98;100243.22;5597867;31;33407;-82
2021/12/19 15:06:00;;;;;;;;;;;;;;;4.24;97.14;100239.09;5596821;31;33579;-82
2021/12/19 15:09:07;;;;;;;;;;;;;;;4.29;97.31;100249.28;5596841;31;33570;-85
2021/12/19 15:12:15;;;;;;;;;;;;;;;4.38;96.67;100229.50;5597154;31;33828;-85
2021/12/19 15:15:18;;;;;;;;;;;;;;;4.33;96.61;100235.88;5597044;31;33407;-83
2021/12/19 15:18:20;;;;;;;;;;;;;;;4.33;96.82;100235.88;5596500;31;33486;-84
2021/12/19 15:21:26;;;;;;;;;;;;;;;4.24;97.80;100231.25;5596722;31;34050;-85
2021/12/19 15:24:29;;;;;;;;;;;;;;;4.26;97.45;100232.00;5596086;31;33354;-84
2021/12/19 15:27:31;;;;;;;;;;;;;;;4.31;97.24;100221.22;5596567;31;33784;-85
2021/12/19 15:30:34;;;;;;;;;;;;;;;4.32;97.35;100239.47;5597017;31;33503;-83
2021/12/19 15:33:39;;;;;;;;;;;;;;;4.48;96.24;100238.41;5596445;31;33900;-82
2021/12/19 15:36:42;;;;;;;;;;;;;;;4.40;96.72;100238.09;5596471;31;33768;-82
2021/12/19 15:39:45;;;;;;;;;;;;;;;4.44;96.66;100226.47;5595934;31;33516;-82
2021/12/19 15:42:47;;;;;;;;;;;;;;;4.41;96.86;100221.44;5596204;31;33377;-84
2021/12/19 15:45:50;;;;;;;;;;;;;;;4.40;96.78;100225.00;5595455;31;33752;-84
2021/12/19 15:48:56;;;;;;;;;;;;;;;4.43;96.52;100220.37;5596313;31;33779;-84
2021/12/19 15:51:59;;;;;;;;;;;;;;;4.36;96.86;100223.53;5595096;31;33902;-82
2021/12/19 15:55:04;;;;;;;;;;;;;;;4.43;96.43;100220.37;5596074;31;33531;-85
2021/12/19 15:58:10;;;;;;;;;;;;;;;4.29;97.57;100213.47;5596829;31;34068;-84
2021/12/19 16:01:15;;;;;;;;;;;;;;;4.31;97.42;100208.97;5596523;31;34178;-85
2021/12/19 16:04:18;;;;;;;;;;;;;;;4.26;97.93;100208.44;5594940;31;34943;-85
2021/12/19 16:07:23;;;;;;;;;;;;;;;4.41;97.17;100195.25;5596705;31;33775;-85
2021/12/19 16:10:29;;;;;;;;;;;;;;;4.29;97.70;100192.53;5596713;31;33557;-84
2021/12/19 16:13:36;;;;;;;;;;;;;;;4.33;97.57;100182.66;5596640;31;33790;-85
2021/12/19 16:16:39;;;;;;;;;;;;;;;4.28;97.54;100180.38;5599464;31;33690;-85
2021/12/19 16:19:44;;;;;;;;;;;;;;;4.30;97.49;100182.87;5596326;31;33415;-84
2021/12/19 16:22:47;;;;;;;;;;;;;;;4.37;97.20;100173.66;5595755;31;33991;-85
2021/12/19 16:25:50;;;;;;;;;;;;;;;4.26;98.12;100173.56;5594515;31;33508;-84
2021/12/19 16:28:52;;;;;;;;;;;;;;;4.23;98.40;100161.50;5597339;31;34119;-85
2021/12/19 16:31:56;;;;;;;;;;;;;;;4.25;98.16;100167.47;5595564;31;33915;-84
2021/12/19 16:34:59;;;;;;;;;;;;;;;4.24;98.14;100167.56;5595091;31;33041;-84
2021/12/19 16:38:01;;;;;;;;;;;;;;;4.34;97.84;100163.41;5594284;31;34019;-84
2021/12/19 16:41:07;;;;;;;;;;;;;;;4.24;98.36;100172.81;5595663;31;33519;-84
2021/12/19 16:44:10;;;;;;;;;;;;;;;4.20;98.69;100172.19;5596029;31;33702;-85
2021/12/19 16:47:13;;;;;;;;;;;;;;;4.32;97.87;100187.06;5596775;31;33679;-85
2021/12/19 16:50:16;;;;;;;;;;;;;;;4.24;98.23;100189.34;5596371;31;33932;-85
2021/12/19 16:53:19;;;;;;;;;;;;;;;4.27;98.32;100185.72;5596120;31;34619;-85
2021/12/19 16:56:22;;;;;;;;;;;;;;;4.38;97.64;100188.44;5598509;31;34598;-83
2021/12/19 16:59:24;;;;;;;;;;;;;;;4.32;98.20;100191.47;5595627;31;34014;-85
2021/12/19 17:02:27;;;;;;;;;;;;;;;4.40;97.48;100193.56;5595028;31;33350;-85
2021/12/19 17:05:31;;;;;;;;;;;;;;;4.26;98.82;100197.94;5594347;31;33612;-85
2021/12/19 17:08:34;;;;;;;;;;;;;;;4.23;99.32;100185.06;5595405;31;33491;-85
2021/12/19 17:11:44;;;;;;;;;;;;;;;4.25;99.30;100184.97;5595357;31;33425;-85